Time;durP1;ratioP1;P1;durP2;ratioP2;P2;SDS_P1;SDS_P2;PMS_P1;PMS_P2;Temp;Humidity;BMP_temperature;BMP_pressure;BME280_temperature;BME280_humidity;BME280_pressure;Samples;Min_cycle;Max_cycle;Signal;HPM_P1;HPM_P2
2023/09/29 00:00:26;;;;;;;12.45;4.72;;;17.90;99.90;;;;;;5092935;28;20024;-52
2023/09/29 00:02:54;;;;;;;12.23;4.65;;;17.90;99.90;;;;;;5093386;28;20038;-51
2023/09/29 00:05:21;;;;;;;8.60;5.03;;;17.90;99.90;;;;;;5093335;28;20028;-49
2023/09/29 00:07:47;;;;;;;9.00;4.70;;;17.90;99.90;;;;;;5093031;28;20032;-51
2023/09/29 00:10:17;;;;;;;7.18;4.45;;;17.90;99.90;;;;;;5092884;28;20024;-51
2023/09/29 00:12:43;;;;;;;8.32;4.53;;;17.90;99.90;;;;;;5093114;28;20707;-51
2023/09/29 00:15:09;;;;;;;7.90;4.47;;;18.00;99.90;;;;;;5093297;28;20412;-51
2023/09/29 00:17:35;;;;;;;8.13;4.22;;;18.10;99.90;;;;;;5092842;28;20086;-53
2023/09/29 00:20:02;;;;;;;9.05;4.47;;;18.00;99.90;;;;;;5092850;28;20492;-54
2023/09/29 00:22:28;;;;;;;9.98;4.40;;;18.10;99.90;;;;;;5092127;28;20040;-50
2023/09/29 00:24:54;;;;;;;7.55;4.32;;;18.10;99.90;;;;;;5092880;28;20039;-51
2023/09/29 00:27:20;;;;;;;6.35;4.43;;;18.00;99.90;;;;;;5074730;28;20030;-50
2023/09/29 00:29:46;;;;;;;7.72;4.50;;;17.90;99.90;;;;;;5074367;28;20153;-52
2023/09/29 00:32:11;;;;;;;9.13;4.93;;;18.00;99.90;;;;;;5074337;28;20643;-54
2023/09/29 00:34:37;;;;;;;6.05;3.65;;;18.00;99.90;;;;;;5074457;28;20039;-54
2023/09/29 00:37:08;;;;;;;11.38;4.68;;;18.00;99.90;;;;;;5092570;28;20034;-51
2023/09/29 00:39:33;;;;;;;8.43;4.70;;;18.00;99.90;;;;;;5074155;28;20483;-50
2023/09/29 00:41:59;;;;;;;6.55;4.28;;;18.00;99.90;;;;;;5074123;28;20024;-53
2023/09/29 00:44:24;;;;;;;7.68;4.22;;;18.10;99.90;;;;;;5074232;28;20031;-51
2023/09/29 00:46:51;;;;;;;10.60;4.88;;;18.00;99.90;;;;;;5074267;28;20112;-54
2023/09/29 00:49:17;;;;;;;8.85;5.05;;;18.00;99.90;;;;;;5073905;28;20062;-53
2023/09/29 00:51:43;;;;;;;9.80;4.60;;;18.00;99.90;;;;;;5073914;28;20036;-53
2023/09/29 00:54:09;;;;;;;8.48;4.07;;;17.90;99.90;;;;;;5073889;28;20039;-54
2023/09/29 00:56:36;;;;;;;7.78;4.10;;;17.90;99.90;;;;;;5092085;28;20087;-52
2023/09/29 00:59:05;;;;;;;8.18;4.05;;;17.90;99.90;;;;;;5073494;28;20468;-49
2023/09/29 01:01:33;;;;;;;7.03;4.18;;;18.00;99.90;;;;;;5091856;28;20035;-49
2023/09/29 01:04:00;;;;;;;8.13;4.28;;;18.00;99.90;;;;;;5073781;28;20423;-49
2023/09/29 01:06:26;;;;;;;8.90;3.88;;;18.00;99.90;;;;;;5091968;28;20115;-49
2023/09/29 01:08:52;;;;;;;7.40;4.32;;;18.00;99.90;;;;;;5073440;28;20392;-48
2023/09/29 01:11:19;;;;;;;8.93;3.78;;;18.00;99.90;;;;;;5091706;28;20480;-49
2023/09/29 01:13:45;;;;;;;6.25;3.80;;;18.10;99.90;;;;;;5073687;28;20051;-49
2023/09/29 01:16:11;;;;;;;8.55;4.47;;;18.10;99.90;;;;;;5091946;28;20464;-49
2023/09/29 01:18:36;;;;;;;8.20;3.90;;;18.00;99.90;;;;;;5073329;28;20032;-49
2023/09/29 01:21:06;;;;;;;6.57;3.97;;;18.00;99.90;;;;;;5091717;28;20459;-50
2023/09/29 01:23:33;;;;;;;6.57;4.25;;;18.00;99.90;;;;;;5073684;28;20032;-49
2023/09/29 01:25:59;;;;;;;5.75;3.95;;;18.00;99.90;;;;;;5073527;28;20477;-50
2023/09/29 01:28:25;;;;;;;8.75;4.35;;;18.00;99.90;;;;;;5091652;28;20039;-54
2023/09/29 01:30:54;;;;;;;7.50;4.43;;;18.00;99.90;;;;;;5091489;28;20031;-54
2023/09/29 01:33:21;;;;;;;7.55;4.63;;;18.10;99.90;;;;;;5073359;28;20032;-52
2023/09/29 01:35:49;;;;;;;6.97;3.75;;;18.10;99.90;;;;;;5073278;28;20407;-53
2023/09/29 01:38:15;;;;;;;8.88;4.38;;;18.10;99.90;;;;;;5091431;28;20058;-50
2023/09/29 01:40:41;;;;;;;6.75;3.88;;;18.10;99.90;;;;;;5072745;28;20109;-53
2023/09/29 01:43:06;;;;;;;6.22;3.63;;;18.10;99.90;;;;;;5091452;28;20123;-49
2023/09/29 01:45:32;;;;;;;5.88;3.47;;;18.10;99.90;;;;;;5073382;28;20115;-50
2023/09/29 01:48:00;;;;;;;9.07;3.70;;;18.10;99.90;;;;;;5073023;28;20493;-50
2023/09/29 01:50:26;;;;;;;6.15;3.75;;;18.10;99.90;;;;;;5090922;28;20024;-53
2023/09/29 01:52:52;;;;;;;6.85;3.95;;;18.10;99.90;;;;;;5073037;28;20112;-51
2023/09/29 01:55:19;;;;;;;6.90;3.17;;;18.20;99.90;;;;;;5091279;28;20104;-53
2023/09/29 01:57:49;;;;;;;7.85;3.83;;;18.20;99.90;;;;;;5072971;28;20463;-53
2023/09/29 02:00:24;;;;;;;7.22;3.50;;;18.20;99.90;;;;;;5072787;28;20102;-54
2023/09/29 02:02:52;;;;;;;6.70;3.38;;;18.30;99.90;;;;;;5091408;28;20028;-53
2023/09/29 02:05:18;;;;;;;6.90;3.25;;;18.10;99.90;;;;;;5091332;28;20534;-54
2023/09/29 02:07:46;;;;;;;7.50;3.70;;;18.10;99.90;;;;;;5091240;28;20085;-53
2023/09/29 02:10:12;;;;;;;7.85;3.85;;;18.10;99.90;;;;;;5072795;28;20032;-53
2023/09/29 02:12:48;;;;;;;6.68;3.42;;;18.00;99.90;;;;;;5072856;28;20093;-54
2023/09/29 02:15:15;;;;;;;9.75;3.53;;;18.10;99.90;;;;;;5072794;28;20031;-53
2023/09/29 02:17:42;;;;;;;8.00;3.78;;;18.20;99.90;;;;;;5072701;28;20035;-50
2023/09/29 02:20:15;;;;;;;9.45;3.55;;;18.20;99.90;;;;;;5072186;28;20031;-49
2023/09/29 02:22:42;;;;;;;5.60;3.05;;;18.30;99.90;;;;;;5072697;28;20043;-49
2023/09/29 02:25:16;;;;;;;4.72;3.25;;;18.20;99.90;;;;;;5072605;28;20040;-49
2023/09/29 02:27:42;;;;;;;5.85;3.47;;;18.20;99.90;;;;;;5072544;28;20024;-50
2023/09/29 02:30:10;;;;;;;8.95;3.55;;;18.20;99.90;;;;;;5072574;28;20028;-49
2023/09/29 02:32:41;;;;;;;5.95;3.10;;;18.20;99.90;;;;;;5090526;28;20056;-50
2023/09/29 02:35:07;;;;;;;9.50;3.28;;;18.20;99.90;;;;;;5090808;28;20032;-49
2023/09/29 02:37:33;;;;;;;7.55;3.20;;;18.30;99.90;;;;;;5090755;28;20055;-49
2023/09/29 02:39:59;;;;;;;6.72;3.30;;;18.30;99.90;;;;;;5072421;28;20576;-53
2023/09/29 02:42:25;;;;;;;6.97;2.95;;;18.30;99.90;;;;;;5090656;28;20020;-48
2023/09/29 02:44:51;;;;;;;7.43;3.30;;;18.30;99.90;;;;;;5089560;28;20119;-49
2023/09/29 02:47:16;;;;;;;3.95;2.80;;;18.20;99.90;;;;;;5074122;28;20158;-52
2023/09/29 02:49:42;;;;;;;7.15;2.83;;;18.30;99.90;;;;;;5055786;28;20384;-49
2023/09/29 02:52:08;;;;;;;5.82;3.08;;;18.30;99.90;;;;;;5074064;28;20055;-52
2023/09/29 02:54:33;;;;;;;7.22;3.38;;;18.40;99.90;;;;;;5056036;28;20025;-52
2023/09/29 02:56:59;;;;;;;5.60;2.80;;;18.40;99.90;;;;;;5074631;28;20031;-51
2023/09/29 02:59:25;;;;;;;6.25;3.10;;;18.40;99.90;;;;;;5056317;28;20032;-54
2023/09/29 03:01:51;;;;;;;5.70;3.03;;;18.40;99.90;;;;;;5073598;28;20078;-52
2023/09/29 03:04:17;;;;;;;7.15;3.15;;;18.40;99.90;;;;;;5055864;28;20032;-48
2023/09/29 03:06:42;;;;;;;6.38;2.80;;;18.40;99.90;;;;;;5055761;28;20021;-49
2023/09/29 03:09:13;;;;;;;7.95;3.00;;;18.40;99.90;;;;;;5055503;28;20698;-52
2023/09/29 03:11:43;;;;;;;6.22;3.30;;;18.40;99.90;;;;;;5073728;28;20024;-52
2023/09/29 03:14:09;;;;;;;5.95;2.92;;;18.40;99.90;;;;;;5073877;28;20048;-53
2023/09/29 03:16:35;;;;;;;5.68;3.00;;;18.30;99.90;;;;;;5073892;28;20111;-53
2023/09/29 03:19:02;;;;;;;5.28;2.65;;;18.30;99.90;;;;;;5055285;28;20029;-53
2023/09/29 03:21:28;;;;;;;5.28;2.72;;;18.40;99.90;;;;;;5073476;28;20078;-53
2023/09/29 03:23:53;;;;;;;5.03;2.60;;;18.50;99.90;;;;;;5072672;28;20435;-54
2023/09/29 03:26:22;;;;;;;8.68;3.35;;;18.50;99.90;;;;;;5054400;28;20025;-54
2023/09/29 03:28:49;;;;;;;;;;;18.50;99.90;;;;;;5073679;28;20546;-52
2023/09/29 03:31:15;;;;;;;7.20;2.92;;;18.50;99.90;;;;;;5073225;28;20352;-53
2023/09/29 03:33:42;;;;;;;5.30;2.72;;;18.50;99.90;;;;;;5072872;28;20032;-54
2023/09/29 03:36:08;;;;;;;6.95;3.47;;;18.50;99.90;;;;;;5073173;28;20483;-53
2023/09/29 03:38:33;;;;;;;3.90;2.60;;;18.50;99.90;;;;;;5073004;28;20113;-54
2023/09/29 03:40:59;;;;;;;5.18;2.67;;;18.50;99.90;;;;;;5073059;28;20035;-49
2023/09/29 03:43:25;;;;;;;5.75;2.70;;;18.50;99.90;;;;;;5073121;28;20066;-53
2023/09/29 03:45:51;;;;;;;5.15;2.55;;;18.50;99.90;;;;;;5073133;28;20495;-54
2023/09/29 03:48:17;;;;;;;5.28;2.60;;;18.60;99.90;;;;;;5073006;28;20039;-54
2023/09/29 03:50:43;;;;;;;5.68;2.58;;;18.60;99.90;;;;;;5072668;28;20132;-53
2023/09/29 03:53:09;;;;;;;6.82;2.60;;;18.60;99.90;;;;;;5073061;28;20032;-53
2023/09/29 03:55:35;;;;;;;5.70;2.88;;;18.60;99.90;;;;;;5054833;28;20044;-54
2023/09/29 03:58:01;;;;;;;8.68;2.50;;;18.60;99.90;;;;;;5071616;28;20040;-53
2023/09/29 04:00:26;;;;;;;4.95;2.35;;;18.70;99.90;;;;;;5072565;28;20088;-54
2023/09/29 04:02:52;;;;;;;4.65;2.33;;;18.70;99.90;;;;;;5072769;28;20028;-53
2023/09/29 04:05:19;;;;;;;4.45;2.30;;;18.70;99.90;;;;;;5072650;28;20024;-54
2023/09/29 04:07:45;;;;;;;7.47;2.58;;;18.70;99.90;;;;;;5072662;28;20043;-53
2023/09/29 04:10:12;;;;;;;4.57;2.22;;;18.70;99.90;;;;;;5072550;28;20457;-53
2023/09/29 04:12:40;;;;;;;5.38;2.30;;;18.70;99.90;;;;;;5072350;28;20044;-53
2023/09/29 04:15:07;;;;;;;6.22;2.53;;;18.60;99.90;;;;;;5072897;28;20039;-53
2023/09/29 04:17:34;;;;;;;6.43;2.65;;;18.70;99.90;;;;;;5072434;28;20024;-53
2023/09/29 04:20:02;;;;;;;6.10;2.20;;;18.70;99.90;;;;;;5072656;28;20048;-50
2023/09/29 04:22:29;;;;;;;5.68;2.80;;;18.70;99.90;;;;;;5072521;28;20061;-54
2023/09/29 04:24:56;;;;;;;6.30;2.20;;;18.60;99.90;;;;;;5072397;28;20422;-54
2023/09/29 04:27:22;;;;;;;4.10;2.25;;;18.60;99.90;;;;;;5072248;28;20032;-51
2023/09/29 04:29:47;;;;;;;4.75;2.25;;;18.60;99.90;;;;;;5072077;28;20032;-52
2023/09/29 04:32:13;;;;;;;5.35;2.50;;;18.50;99.90;;;;;;5072129;28;20039;-52
2023/09/29 04:34:38;;;;;;;7.60;2.72;;;18.50;99.90;;;;;;5072301;28;20029;-53
2023/09/29 04:37:04;;;;;;;3.15;2.10;;;18.40;99.90;;;;;;5072175;28;20035;-53
2023/09/29 04:39:29;;;;;;;5.95;2.58;;;18.50;99.90;;;;;;5071868;28;20036;-54
2023/09/29 04:41:55;;;;;;;3.85;2.15;;;18.50;99.90;;;;;;5071905;28;20151;-54
2023/09/29 04:44:21;;;;;;;5.55;2.63;;;18.40;99.90;;;;;;5054047;28;20040;-53
2023/09/29 04:46:46;;;;;;;6.03;2.35;;;18.40;99.90;;;;;;5072070;28;20063;-50
2023/09/29 04:49:12;;;;;;;6.05;2.47;;;18.30;99.90;;;;;;5071855;28;20135;-50
2023/09/29 04:51:37;;;;;;;4.47;2.60;;;18.30;99.90;;;;;;5071871;28;20485;-49
2023/09/29 04:54:03;;;;;;;3.45;2.40;;;18.30;99.90;;;;;;5054038;28;20043;-53
2023/09/29 04:56:29;;;;;;;5.20;2.58;;;18.20;99.90;;;;;;5071904;28;20079;-52
2023/09/29 04:58:55;;;;;;;4.50;2.28;;;18.20;99.90;;;;;;5075865;28;20492;-53
2023/09/29 05:01:20;;;;;;;4.88;2.30;;;18.20;99.90;;;;;;5086718;28;20020;-54
2023/09/29 05:03:47;;;;;;;3.72;2.28;;;18.20;99.90;;;;;;5083101;28;20030;-49
2023/09/29 05:06:15;;;;;;;3.55;2.20;;;18.20;99.90;;;;;;5082955;28;20504;-54
2023/09/29 05:08:41;;;;;;;7.88;2.60;;;18.20;99.90;;;;;;5065016;28;20032;-53
2023/09/29 05:11:07;;;;;;;5.28;2.60;;;18.20;99.90;;;;;;5074564;28;20034;-53
2023/09/29 05:13:32;;;;;;;3.30;2.20;;;18.20;99.90;;;;;;5080993;28;20349;-51
2023/09/29 05:16:01;;;;;;;4.05;2.28;;;18.20;99.90;;;;;;5077424;28;20062;-52
2023/09/29 05:18:27;;;;;;;;;;;18.20;99.90;;;;;;5084234;28;20366;-54
2023/09/29 05:20:53;;;;;;;6.85;3.33;;;18.20;99.90;;;;;;5083743;28;19915;-54
2023/09/29 05:23:19;;;;;;;4.57;2.60;;;18.20;99.90;;;;;;5082173;28;20024;-51
2023/09/29 05:25:46;;;;;;;7.80;4.28;;;18.20;99.90;;;;;;5082031;28;20032;-52
2023/09/29 05:28:12;;;;;;;5.65;3.10;;;18.20;99.90;;;;;;5072275;28;20036;-53
2023/09/29 05:30:38;;;;;;;6.82;3.38;;;18.20;99.90;;;;;;5072838;28;20043;-54
2023/09/29 05:33:04;;;;;;;4.93;3.00;;;18.20;99.90;;;;;;5082999;28;20048;-54
2023/09/29 05:35:30;;;;;;;7.60;3.67;;;18.30;99.90;;;;;;5080613;28;20035;-54
2023/09/29 05:37:56;;;;;;;9.13;4.75;;;18.30;99.90;;;;;;5073266;28;20523;-53
2023/09/29 05:40:22;;;;;;;7.25;2.58;;;18.30;99.90;;;;;;5073733;28;20024;-53
2023/09/29 05:42:48;;;;;;;14.43;5.82;;;18.40;99.90;;;;;;5087178;28;20028;-54
2023/09/29 05:45:13;;;;;;;6.90;3.08;;;18.30;99.90;;;;;;5070117;28;20043;-50
2023/09/29 05:47:39;;;;;;;11.80;5.95;;;18.40;99.90;;;;;;5081401;28;20032;-52
2023/09/29 05:50:05;;;;;;;7.05;4.05;;;18.40;99.90;;;;;;5079300;28;20089;-53
2023/09/29 05:52:32;;;;;;;4.85;2.75;;;18.40;99.90;;;;;;5076736;28;20024;-52
2023/09/29 05:54:57;;;;;;;10.68;5.20;;;18.40;99.90;;;;;;5088675;28;20039;-52
2023/09/29 05:57:23;;;;;;;3.88;2.28;;;18.40;99.90;;;;;;5082152;28;20036;-53
2023/09/29 05:59:49;;;;;;;4.82;2.45;;;18.40;99.90;;;;;;5068397;28;20371;-52
2023/09/29 06:02:14;;;;;;;5.60;2.33;;;18.50;99.90;;;;;;5087778;28;20460;-53
2023/09/29 06:04:40;;;;;;;3.72;2.28;;;18.50;99.90;;;;;;5087237;28;20062;-50
2023/09/29 06:07:05;;;;;;;6.68;3.13;;;18.50;99.90;;;;;;5085771;28;20100;-51
2023/09/29 06:09:31;;;;;;;5.63;2.40;;;18.50;99.90;;;;;;5082379;28;20067;-52
2023/09/29 06:11:57;;;;;;;5.93;3.22;;;18.50;99.90;;;;;;5078289;28;20032;-52
2023/09/29 06:14:22;;;;;;;5.15;2.35;;;18.60;99.90;;;;;;5072033;28;20373;-52
2023/09/29 06:16:48;;;;;;;3.60;2.38;;;18.60;99.90;;;;;;5088559;28;20058;-49
2023/09/29 06:19:15;;;;;;;8.88;3.85;;;18.60;99.90;;;;;;5079039;28;20258;-49
2023/09/29 06:21:40;;;;;;;5.05;2.00;;;18.60;99.90;;;;;;5084131;28;20472;-52
2023/09/29 06:24:06;;;;;;;4.82;2.05;;;18.60;99.90;;;;;;5082176;28;20068;-54
2023/09/29 06:26:32;;;;;;;12.85;4.68;;;18.70;99.90;;;;;;5086672;28;20047;-54
2023/09/29 06:28:57;;;;;;;5.43;2.45;;;18.70;99.90;;;;;;5082191;28;20032;-51
2023/09/29 06:31:23;;;;;;;5.85;2.58;;;18.70;99.90;;;;;;5080225;28;20026;-52
2023/09/29 06:33:49;;;;;;;4.32;2.20;;;18.80;99.90;;;;;;5062292;28;20028;-52
2023/09/29 06:36:14;;;;;;;4.00;2.10;;;18.90;99.90;;;;;;5081443;28;20426;-54
2023/09/29 06:38:40;;;;;;;5.45;2.15;;;18.90;99.90;;;;;;5079578;28;20028;-54
2023/09/29 06:41:06;;;;;;;6.80;2.20;;;19.00;99.90;;;;;;5083171;28;20355;-51
2023/09/29 06:43:32;;;;;;;5.18;1.90;;;19.00;99.90;;;;;;5067885;28;20024;-54
2023/09/29 06:45:58;;;;;;;3.70;2.10;;;19.00;99.90;;;;;;5074820;28;20381;-53
2023/09/29 06:48:24;;;;;;;3.65;2.15;;;19.10;99.90;;;;;;5083288;28;20103;-52
2023/09/29 06:50:49;;;;;;;6.63;1.92;;;19.10;99.90;;;;;;5083199;28;20023;-55
2023/09/29 06:53:15;;;;;;;4.45;1.73;;;19.20;99.90;;;;;;5073886;28;20036;-55
2023/09/29 06:55:40;;;;;;;7.07;2.88;;;19.20;99.90;;;;;;5086779;28;20036;-53
2023/09/29 06:58:06;;;;;;;9.13;2.50;;;19.20;99.90;;;;;;5065283;28;20060;-54
2023/09/29 07:00:32;;;;;;;3.92;2.20;;;19.30;99.90;;;;;;5061093;28;20028;-53
2023/09/29 07:02:58;;;;;;;4.18;1.90;;;19.30;99.90;;;;;;5088388;28;20060;-51
2023/09/29 07:05:24;;;;;;;4.97;2.33;;;19.40;99.90;;;;;;5087822;28;20530;-52
2023/09/29 07:07:49;;;;;;;4.57;1.90;;;19.40;99.90;;;;;;5086719;28;20020;-53
2023/09/29 07:10:15;;;;;;;4.78;2.17;;;19.50;99.90;;;;;;5087622;28;20384;-52
2023/09/29 07:12:41;;;;;;;3.70;2.20;;;19.50;99.90;;;;;;5078592;28;20108;-53
2023/09/29 07:15:08;;;;;;;4.13;2.05;;;19.60;99.90;;;;;;5081512;28;20476;-52
2023/09/29 07:17:34;;;;;;;4.03;1.88;;;19.70;99.90;;;;;;5080156;28;20074;-52
2023/09/29 07:19:59;;;;;;;4.47;2.10;;;19.70;99.90;;;;;;5087399;28;20116;-50
2023/09/29 07:22:25;;;;;;;7.43;2.10;;;19.70;99.90;;;;;;5083175;28;20028;-52
2023/09/29 07:24:52;;;;;;;4.47;1.80;;;19.80;99.90;;;;;;5090333;28;20551;-54
2023/09/29 07:27:18;;;;;;;3.95;2.15;;;19.90;99.90;;;;;;5071347;28;20036;-53
2023/09/29 07:29:43;;;;;;;5.53;2.55;;;20.00;99.90;;;;;;5074837;28;20024;-50
2023/09/29 07:32:11;;;;;;;4.55;2.47;;;20.10;99.90;;;;;;5088415;28;20377;-49
2023/09/29 07:34:36;;;;;;;5.03;2.03;;;20.20;99.90;;;;;;5079502;28;20388;-52
2023/09/29 07:37:02;;;;;;;5.03;1.98;;;20.30;99.90;;;;;;5078878;28;20041;-49
2023/09/29 07:39:27;;;;;;;5.85;2.40;;;20.40;99.90;;;;;;5082439;28;20119;-50
2023/09/29 07:41:53;;;;;;;6.85;2.25;;;20.50;99.90;;;;;;5065217;28;20329;-49
2023/09/29 07:44:19;;;;;;;6.18;2.40;;;20.50;99.90;;;;;;5081625;28;20031;-52
2023/09/29 07:46:46;;;;;;;4.03;2.33;;;20.50;99.90;;;;;;5072810;28;20071;-52
2023/09/29 07:49:14;;;;;;;3.97;1.80;;;20.60;99.90;;;;;;5074330;28;20043;-50
2023/09/29 07:51:40;;;;;;;3.25;1.85;;;20.60;99.90;;;;;;5077101;28;20098;-51
2023/09/29 07:54:06;;;;;;;3.75;2.00;;;20.70;99.90;;;;;;5080014;28;20035;-52
2023/09/29 07:56:32;;;;;;;4.90;2.40;;;20.80;99.90;;;;;;5090605;28;20444;-53
2023/09/29 07:58:58;;;;;;;4.90;2.10;;;20.80;99.90;;;;;;5073853;28;20062;-51
2023/09/29 08:01:23;;;;;;;6.50;2.42;;;20.70;99.90;;;;;;5082299;28;20458;-53
2023/09/29 08:03:49;;;;;;;4.50;2.20;;;20.70;99.90;;;;;;5083117;28;20108;-54
2023/09/29 08:06:16;;;;;;;3.50;1.88;;;20.60;99.90;;;;;;5078666;28;20032;-54
2023/09/29 08:08:42;;;;;;;5.15;2.00;;;20.60;99.90;;;;;;5051888;28;20403;-54
2023/09/29 08:11:07;;;;;;;4.93;2.20;;;20.60;99.90;;;;;;5078151;28;20043;-53
2023/09/29 08:13:34;;;;;;;7.57;2.25;;;20.60;99.90;;;;;;5070214;28;20036;-53
2023/09/29 08:16:00;;;;;;;5.40;2.22;;;20.50;99.90;;;;;;5070518;28;20115;-50
2023/09/29 08:18:26;;;;;;;8.98;3.67;;;20.50;99.90;;;;;;5081115;28;20038;-51
2023/09/29 08:20:53;;;;;;;7.95;2.40;;;20.60;99.90;;;;;;5089812;28;20020;-52
2023/09/29 08:23:19;;;;;;;5.45;2.25;;;20.50;99.90;;;;;;5068284;28;20040;-51
2023/09/29 08:25:46;;;;;;;6.72;2.08;;;20.50;99.90;;;;;;5069965;28;20016;-54
2023/09/29 08:28:13;;;;;;;7.15;2.40;;;20.60;99.90;;;;;;5079142;28;20052;-52
2023/09/29 08:30:39;;;;;;;5.70;2.55;;;20.70;99.90;;;;;;5075658;28;20463;-52
2023/09/29 08:33:05;;;;;;;4.32;2.28;;;20.70;99.90;;;;;;5077878;28;20063;-54
2023/09/29 08:35:31;;;;;;;3.78;2.08;;;20.70;99.90;;;;;;5074473;28;20067;-50
2023/09/29 08:37:57;;;;;;;6.95;3.13;;;20.70;99.90;;;;;;5081728;28;20039;-50
2023/09/29 08:40:22;;;;;;;6.45;3.22;;;20.70;99.90;;;;;;5088925;28;20020;-52
2023/09/29 08:42:51;;;;;;;4.70;2.55;;;20.70;99.90;;;;;;5088684;28;20381;-52
2023/09/29 08:45:18;;;;;;;3.58;2.17;;;20.80;99.90;;;;;;5089815;28;20032;-52
2023/09/29 08:47:51;;;;;;;7.65;2.30;;;20.90;99.90;;;;;;5063191;28;20065;-53
2023/09/29 08:50:18;;;;;;;6.88;2.28;;;20.90;99.90;;;;;;5086052;28;20106;-53
2023/09/29 08:52:45;;;;;;;4.10;2.20;;;21.00;99.90;;;;;;5075853;28;20111;-52
2023/09/29 08:55:14;;;;;;;6.47;2.20;;;21.10;99.90;;;;;;5081473;28;20402;-53
2023/09/29 08:57:43;;;;;;;4.70;2.50;;;21.20;99.90;;;;;;5088824;28;20108;-52
2023/09/29 09:00:12;;;;;;;6.25;1.85;;;21.30;99.90;;;;;;5088950;28;20051;-51
2023/09/29 09:02:41;;;;;;;4.35;2.03;;;21.40;99.90;;;;;;5088843;28;20030;-52
2023/09/29 09:05:10;;;;;;;;;;;21.70;99.90;;;;;;5080758;28;20035;-52
2023/09/29 09:07:40;;;;;;;5.57;2.30;;;21.90;99.90;;;;;;5089153;28;19918;-52
2023/09/29 09:10:06;;;;;;;4.65;2.47;;;22.10;99.90;;;;;;5086925;28;20067;-48
2023/09/29 09:12:34;;;;;;;3.25;1.90;;;22.30;99.90;;;;;;5081203;28;20358;-51
2023/09/29 09:15:00;;;;;;;4.85;1.92;;;22.40;99.90;;;;;;5088290;28;20024;-49
2023/09/29 09:17:26;;;;;;;3.92;1.77;;;22.50;99.90;;;;;;5085391;28;20017;-49
2023/09/29 09:19:51;;;;;;;5.45;2.10;;;22.50;99.90;;;;;;5076831;28;20487;-49
2023/09/29 09:22:22;;;;;;;6.40;2.50;;;22.50;99.90;;;;;;5087369;28;20395;-52
2023/09/29 09:24:48;;;;;;;4.53;1.95;;;22.40;99.90;;;;;;5075478;28;20025;-53
2023/09/29 09:27:14;;;;;;;5.20;2.10;;;22.40;99.90;;;;;;5076520;28;20025;-52
2023/09/29 09:29:43;;;;;;;3.92;2.22;;;22.50;99.90;;;;;;5082467;28;20047;-50
2023/09/29 09:32:12;;;;;;;4.50;2.63;;;22.50;99.90;;;;;;5079172;28;20068;-51
2023/09/29 09:34:39;;;;;;;4.00;1.85;;;22.50;99.90;;;;;;5086871;28;20035;-53
2023/09/29 09:37:06;;;;;;;3.58;2.10;;;22.40;99.90;;;;;;5080238;28;20031;-52
2023/09/29 09:39:33;;;;;;;4.68;2.05;;;22.40;99.90;;;;;;5086905;28;20475;-52
2023/09/29 09:42:03;;;;;;;4.70;2.10;;;22.40;99.90;;;;;;5076962;28;20054;-51
2023/09/29 09:44:28;;;;;;;5.88;1.80;;;22.40;99.90;;;;;;5087849;28;20112;-54
2023/09/29 09:47:00;;;;;;;3.63;1.75;;;22.60;99.90;;;;;;5088797;28;20465;-53
2023/09/29 09:49:36;;;;;;;4.57;1.80;;;22.80;99.90;;;;;;5085589;28;20040;-51
2023/09/29 09:52:07;;;;;;;3.53;1.55;;;23.00;99.90;;;;;;5086496;28;20025;-53
2023/09/29 09:54:46;;;;;;;4.13;1.90;;;23.00;99.90;;;;;;5072672;28;20511;-51
2023/09/29 09:57:13;;;;;;;;;;;23.10;99.90;;;;;;5080896;28;20036;-53
2023/09/29 09:59:41;;;;;;;8.02;2.53;;;23.10;99.90;;;;;;5080072;28;19955;-53
2023/09/29 10:02:10;;;;;;;6.63;2.03;;;22.90;99.90;;;;;;5086834;28;20458;-49
2023/09/29 10:04:40;;;;;;;3.75;1.65;;;22.80;99.90;;;;;;5077182;28;20530;-53
2023/09/29 10:07:06;;;;;;;5.05;2.05;;;22.70;99.90;;;;;;5075675;28;20074;-52
2023/09/29 10:09:46;;;;;;;6.75;2.00;;;22.50;99.90;;;;;;5076568;28;20020;-52
2023/09/29 10:12:26;;;;;;;6.03;2.20;;;22.50;99.90;;;;;;5082546;28;20035;-48
2023/09/29 10:14:55;;;;;;;4.28;1.70;;;22.40;99.90;;;;;;5086148;28;20028;-49
2023/09/29 10:17:22;;;;;;;6.15;2.35;;;22.40;99.90;;;;;;5086906;28;20495;-49
2023/09/29 10:19:52;;;;;;;3.05;1.50;;;22.50;99.90;;;;;;5089053;28;20032;-50
2023/09/29 10:22:25;;;;;;;2.58;1.40;;;22.80;99.90;;;;;;5087952;28;20099;-51
2023/09/29 10:24:59;;;;;;;4.43;1.73;;;23.30;99.90;;;;;;5084392;28;20032;-54
2023/09/29 10:27:33;;;;;;;5.40;2.00;;;23.90;99.90;;;;;;5084659;28;20093;-54
2023/09/29 10:30:18;;;;;;;4.50;1.50;;;24.30;99.90;;;;;;5058205;28;20436;-53
2023/09/29 10:32:48;;;;;;;3.60;1.50;;;24.40;99.90;;;;;;5081291;28;20038;-53
2023/09/29 10:35:21;;;;;;;3.20;1.70;;;24.30;99.90;;;;;;5085752;28;20028;-53
2023/09/29 10:37:54;;;;;;;7.50;1.90;;;24.10;99.90;;;;;;5078042;28;20032;-52
2023/09/29 10:40:33;;;;;;;4.45;1.83;;;24.10;99.90;;;;;;5068834;28;20098;-53
2023/09/29 10:43:02;;;;;;;5.88;2.30;;;24.00;99.90;;;;;;5081272;28;20063;-53
2023/09/29 10:45:36;;;;;;;5.38;1.80;;;23.80;99.90;;;;;;5088241;28;20028;-50
2023/09/29 10:48:06;;;;;;;8.20;1.95;;;23.70;99.90;;;;;;5087690;28;20040;-50
2023/09/29 10:50:42;;;;;;;4.78;1.73;;;23.80;99.90;;;;;;5079123;28;20044;-50
2023/09/29 10:53:08;;;;;;;8.15;2.20;;;23.90;99.90;;;;;;5064556;28;20058;-51
2023/09/29 10:55:47;;;;;;;4.28;1.70;;;24.00;99.90;;;;;;5086186;28;20024;-52
2023/09/29 10:58:15;;;;;;;6.72;1.75;;;24.10;99.90;;;;;;5087065;28;20032;-54
2023/09/29 11:00:42;;;;;;;7.90;2.30;;;24.00;99.90;;;;;;5071514;28;20046;-50
2023/09/29 11:03:11;;;;;;;5.68;2.22;;;23.80;99.90;;;;;;5071054;28;20028;-54
2023/09/29 11:05:58;;;;;;;6.18;2.00;;;23.70;99.90;;;;;;5077808;28;20028;-54
2023/09/29 11:08:32;;;;;;;7.20;2.47;;;23.50;99.90;;;;;;5089078;28;20032;-54
2023/09/29 11:10:59;;;;;;;4.03;1.70;;;23.30;99.90;;;;;;5089266;28;20052;-50
2023/09/29 11:13:26;;;;;;;4.03;1.80;;;23.30;99.90;;;;;;5088970;28;20058;-53
2023/09/29 11:15:52;;;;;;;6.15;2.03;;;23.30;99.90;;;;;;5083221;28;20043;-54
2023/09/29 11:18:33;;;;;;;6.93;2.00;;;23.50;99.90;;;;;;5084549;28;20349;-53
2023/09/29 11:21:00;;;;;;;4.90;1.88;;;23.80;99.90;;;;;;5090022;28;20425;-53
2023/09/29 11:23:28;;;;;;;4.70;1.80;;;23.90;99.90;;;;;;5081500;28;20051;-54
2023/09/29 11:25:59;;;;;;;14.57;7.63;;;23.90;99.90;;;;;;5078137;28;20108;-50
2023/09/29 11:28:26;;;;;;;9.07;3.63;;;23.90;99.90;;;;;;5079617;28;20037;-54
2023/09/29 11:30:54;;;;;;;4.05;2.10;;;24.00;99.90;;;;;;5080998;28;20054;-53
2023/09/29 11:33:20;;;;;;;6.95;2.28;;;24.00;99.90;;;;;;5073874;28;20039;-53
2023/09/29 11:35:46;;;;;;;6.68;2.63;;;23.90;99.90;;;;;;5077261;28;20031;-54
2023/09/29 11:38:16;;;;;;;7.45;2.85;;;23.70;99.90;;;;;;5084040;28;20518;-52
2023/09/29 11:40:43;;;;;;;3.63;1.80;;;23.60;99.90;;;;;;5079857;28;20093;-53
2023/09/29 11:43:10;;;;;;;8.02;1.95;;;23.30;99.90;;;;;;5090273;28;20481;-49
2023/09/29 11:45:36;;;;;;;6.93;1.90;;;23.20;99.90;;;;;;5078853;28;20063;-54
2023/09/29 11:48:01;;;;;;;5.55;2.10;;;23.20;99.90;;;;;;5081385;28;20461;-54
2023/09/29 11:50:28;;;;;;;4.68;1.95;;;23.10;99.90;;;;;;5084204;28;20032;-54
2023/09/29 11:52:54;;;;;;;7.30;2.55;;;23.20;99.90;;;;;;5090313;28;20541;-53
2023/09/29 11:55:20;;;;;;;9.05;2.53;;;23.40;99.90;;;;;;5079784;28;20032;-51
2023/09/29 11:57:45;;;;;;;7.03;2.10;;;23.50;99.90;;;;;;5080553;28;20040;-51
2023/09/29 12:00:13;;;;;;;7.20;2.03;;;23.60;99.90;;;;;;5085944;28;20024;-53
2023/09/29 12:02:39;;;;;;;9.75;2.72;;;23.70;99.90;;;;;;5084024;28;20508;-51
2023/09/29 12:05:06;;;;;;;5.88;1.98;;;23.60;99.90;;;;;;5084032;28;20526;-50
2023/09/29 12:07:32;;;;;;;5.75;2.20;;;23.70;99.90;;;;;;5079775;28;20439;-49
2023/09/29 12:09:59;;;;;;;6.40;1.90;;;23.80;99.90;;;;;;5078340;28;20024;-53
2023/09/29 12:12:25;;;;;;;4.35;1.73;;;23.90;99.90;;;;;;5081174;28;20036;-51
2023/09/29 12:14:53;;;;;;;6.05;2.70;;;23.70;99.90;;;;;;5075791;28;20461;-53
2023/09/29 12:17:20;;;;;;;8.05;2.80;;;23.70;99.90;;;;;;5086501;28;20485;-53
2023/09/29 12:19:46;;;;;;;6.85;2.40;;;23.50;99.90;;;;;;5078362;28;20098;-54
2023/09/29 12:22:12;;;;;;;7.75;2.47;;;23.50;99.90;;;;;;5074070;28;20120;-53
2023/09/29 12:24:40;;;;;;;7.28;2.20;;;23.50;99.90;;;;;;5065224;28;20181;-52
2023/09/29 12:27:08;;;;;;;6.68;2.15;;;23.40;99.90;;;;;;5066569;28;20031;-53
2023/09/29 12:29:34;;;;;;;5.70;2.38;;;23.30;99.90;;;;;;5078485;28;20036;-53
2023/09/29 12:32:00;;;;;;;9.10;2.40;;;23.20;99.90;;;;;;5087031;28;20059;-53
2023/09/29 12:34:26;;;;;;;5.45;2.10;;;23.10;99.90;;;;;;5084369;28;20047;-51
2023/09/29 12:36:51;;;;;;;6.75;2.70;;;23.00;99.90;;;;;;5082798;28;20594;-52
2023/09/29 12:39:17;;;;;;;9.27;4.07;;;23.00;99.90;;;;;;5076430;28;20701;-51
2023/09/29 12:41:43;;;;;;;6.70;2.97;;;23.00;99.90;;;;;;5081290;28;20472;-54
2023/09/29 12:44:09;;;;;;;7.50;3.00;;;22.90;99.90;;;;;;5076922;28;20104;-49
2023/09/29 12:46:34;;;;;;;8.25;3.20;;;22.90;99.90;;;;;;5078036;28;20084;-49